createdAt,value
2023-04-25T00:00:26.989Z,9.70
2023-04-25T00:02:54.670Z,9.70
2023-04-25T00:05:24.398Z,9.70
2023-04-25T00:07:52.441Z,9.70
2023-04-25T00:10:21.290Z,9.70
2023-04-25T00:12:48.974Z,9.70
2023-04-25T00:15:16.583Z,9.70
2023-04-25T00:17:44.159Z,9.70
2023-04-25T00:20:12.160Z,9.70
2023-04-25T00:22:39.514Z,9.60
2023-04-25T00:25:07.782Z,9.60
2023-04-25T00:27:35.140Z,9.60
2023-04-25T00:30:02.495Z,9.60
2023-04-25T00:32:29.782Z,9.60
2023-04-25T00:34:59.150Z,9.60
2023-04-25T00:37:26.564Z,9.60
2023-04-25T00:39:55.957Z,9.60
2023-04-25T00:42:23.340Z,9.60
2023-04-25T00:44:52.688Z,9.60
2023-04-25T00:47:20.944Z,9.60
2023-04-25T00:49:48.244Z,9.60
2023-04-25T00:52:15.881Z,9.50
2023-04-25T00:54:43.175Z,9.50
2023-04-25T00:57:11.761Z,9.50
2023-04-25T00:59:39.679Z,9.40
2023-04-25T01:02:08.394Z,9.40
2023-04-25T01:04:35.888Z,9.40
2023-04-25T01:07:03.948Z,9.40
2023-04-25T01:09:33.098Z,9.40
2023-04-25T01:12:01.209Z,9.40
2023-04-25T01:14:28.564Z,9.40
2023-04-25T01:16:56.086Z,9.50
2023-04-25T01:19:23.553Z,9.40
2023-04-25T01:21:52.087Z,9.40
2023-04-25T01:24:20.493Z,9.40
2023-04-25T01:26:51.023Z,9.40
2023-04-25T01:29:23.177Z,9.40
2023-04-25T01:31:51.259Z,9.40
2023-04-25T01:34:18.586Z,9.40
2023-04-25T01:36:46.131Z,9.40
2023-04-25T01:39:13.479Z,9.30
2023-04-25T01:41:40.668Z,9.30
2023-04-25T01:44:08.060Z,9.30
2023-04-25T01:46:36.402Z,9.30
2023-04-25T01:49:04.491Z,9.30
2023-04-25T01:51:32.783Z,9.30
2023-04-25T01:54:01.153Z,9.30
2023-04-25T01:56:33.812Z,9.30
2023-04-25T01:59:01.981Z,9.30
2023-04-25T02:01:36.792Z,9.30
2023-04-25T02:04:17.413Z,9.30
2023-04-25T02:06:45.269Z,9.20
2023-04-25T02:09:12.748Z,9.30
2023-04-25T02:11:45.775Z,9.20
2023-04-25T02:14:32.948Z,9.20
2023-04-25T02:17:06.882Z,9.20
2023-04-25T02:19:34.421Z,9.20
2023-04-25T02:22:01.853Z,9.20
2023-04-25T02:24:29.095Z,9.20
2023-04-25T02:26:57.353Z,9.20
2023-04-25T02:29:24.955Z,9.20
2023-04-25T02:31:52.415Z,9.20
2023-04-25T02:34:19.646Z,9.10
2023-04-25T02:36:46.961Z,9.00
2023-04-25T02:39:14.180Z,9.00
2023-04-25T02:41:41.409Z,9.00
2023-04-25T02:44:08.645Z,8.90
2023-04-25T02:46:39.317Z,8.90
2023-04-25T02:49:07.610Z,8.80
2023-04-25T02:51:35.926Z,8.70
2023-04-25T02:54:03.167Z,8.60
2023-04-25T02:56:32.813Z,8.60
2023-04-25T02:59:00.047Z,8.60
2023-04-25T03:01:27.683Z,8.40
2023-04-25T03:03:55.314Z,8.30
2023-04-25T03:06:23.017Z,8.20
2023-04-25T03:08:50.306Z,8.10
2023-04-25T03:11:18.527Z,8.00
2023-04-25T03:13:46.100Z,8.00
2023-04-25T03:16:13.501Z,8.00
2023-04-25T03:18:41.037Z,7.90
2023-04-25T03:21:08.331Z,7.80
2023-04-25T03:23:35.727Z,7.70
2023-04-25T03:26:02.969Z,7.60
2023-04-25T03:28:30.248Z,7.70
2023-04-25T03:30:57.957Z,7.70
2023-04-25T03:33:25.502Z,7.80
2023-04-25T03:35:53.094Z,7.80
2023-04-25T03:38:20.877Z,7.80
2023-04-25T03:40:48.034Z,7.80
2023-04-25T03:43:15.326Z,7.80
2023-04-25T03:45:49.434Z,7.70
2023-04-25T03:48:25.892Z,7.60
2023-04-25T03:50:55.798Z,7.50
2023-04-25T03:53:23.201Z,7.50
2023-04-25T03:56:10.878Z,7.50
2023-04-25T03:58:40.083Z,7.40
2023-04-25T04:01:08.972Z,7.40
2023-04-25T04:03:39.443Z,7.60
2023-04-25T04:06:08.445Z,7.60
2023-04-25T04:08:39.639Z,7.70
2023-04-25T04:11:07.353Z,7.80
2023-04-25T04:13:34.808Z,7.80
2023-04-25T04:16:04.369Z,7.80
2023-04-25T04:18:32.426Z,7.80
2023-04-25T04:20:59.683Z,7.80
2023-04-25T04:23:29.824Z,7.80
2023-04-25T04:25:58.980Z,7.80
2023-04-25T04:28:29.624Z,7.80
2023-04-25T04:31:04.917Z,7.80
2023-04-25T04:33:32.712Z,7.80
2023-04-25T04:36:03.826Z,7.90
2023-04-25T04:38:31.566Z,7.80
2023-04-25T04:41:04.550Z,7.90
2023-04-25T04:43:52.110Z,8.00
2023-04-25T04:46:32.435Z,8.10
2023-04-25T04:49:13.560Z,8.20
2023-04-25T04:52:01.988Z,8.20
2023-04-25T04:54:49.172Z,8.30
2023-04-25T04:57:29.299Z,8.50
2023-04-25T05:00:11.901Z,8.60
2023-04-25T05:02:59.173Z,8.70
2023-04-25T05:05:33.496Z,8.80
2023-04-25T05:08:20.670Z,8.90
2023-04-25T05:11:07.815Z,9.10
2023-04-25T05:13:41.538Z,9.30
2023-04-25T05:16:27.449Z,9.40
2023-04-25T05:19:14.728Z,9.40
2023-04-25T05:21:48.657Z,9.60
2023-04-25T05:24:29.544Z,9.80
2023-04-25T05:27:00.439Z,9.90
2023-04-25T05:29:42.645Z,10.10
2023-04-25T05:32:26.416Z,10.20
2023-04-25T05:34:54.172Z,10.30
2023-04-25T05:37:26.618Z,10.60
2023-04-25T05:39:57.679Z,10.90
2023-04-25T05:42:45.012Z,11.10
2023-04-25T05:45:32.378Z,11.30
2023-04-25T05:48:07.021Z,11.70
2023-04-25T05:50:44.417Z,11.90
2023-04-25T05:53:31.652Z,11.90
2023-04-25T05:56:04.915Z,11.70
2023-04-25T05:58:35.218Z,11.50
2023-04-25T06:01:04.405Z,11.60
2023-04-25T06:03:32.092Z,12.60
2023-04-25T06:05:59.648Z,14.90
2023-04-25T06:08:27.508Z,17.30
2023-04-25T06:10:54.981Z,19.70
2023-04-25T06:13:24.072Z,21.30
2023-04-25T06:15:51.445Z,22.70
2023-04-25T06:18:18.768Z,23.50
2023-04-25T06:20:46.092Z,24.10
2023-04-25T06:23:13.463Z,25.00
2023-04-25T06:25:52.357Z,25.60
2023-04-25T06:28:20.573Z,25.70
2023-04-25T06:30:47.846Z,26.10
2023-04-25T06:33:18.677Z,26.20
2023-04-25T06:35:46.886Z,26.30
2023-04-25T06:38:17.133Z,26.60
2023-04-25T06:40:48.580Z,26.30
2023-04-25T06:43:16.039Z,26.70
2023-04-25T06:46:03.295Z,27.20
2023-04-25T06:48:32.962Z,27.60
2023-04-25T06:51:00.248Z,28.10
2023-04-25T06:53:28.611Z,27.90
2023-04-25T06:56:00.070Z,27.70
2023-04-25T06:58:35.963Z,27.60
2023-04-25T07:01:10.415Z,27.90
2023-04-25T07:03:38.995Z,28.10
2023-04-25T07:06:11.399Z,28.10
2023-04-25T07:08:39.151Z,27.60
2023-04-25T07:11:06.572Z,27.60
2023-04-25T07:13:34.046Z,28.50
2023-04-25T07:16:01.815Z,28.10
2023-04-25T07:18:31.468Z,27.70
2023-04-25T07:20:59.863Z,27.80
2023-04-25T07:23:27.360Z,28.20
2023-04-25T07:25:57.063Z,29.30
2023-04-25T07:28:26.302Z,30.50
2023-04-25T07:30:53.626Z,31.20
2023-04-25T07:33:21.648Z,31.50
2023-04-25T07:35:49.100Z,31.90
2023-04-25T07:38:16.277Z,32.40
2023-04-25T07:40:44.025Z,32.20
2023-04-25T07:43:15.905Z,32.00
2023-04-25T07:45:50.170Z,31.80
2023-04-25T07:48:20.442Z,31.30
2023-04-25T07:50:48.633Z,31.40
2023-04-25T07:53:16.086Z,30.90
2023-04-25T07:55:50.101Z,30.20
2023-04-25T07:58:22.486Z,29.80
2023-04-25T08:00:54.097Z,29.80
2023-04-25T08:03:41.424Z,30.10
2023-04-25T08:06:15.990Z,30.00
2023-04-25T08:08:51.870Z,30.20
2023-04-25T08:11:22.552Z,30.80
2023-04-25T08:13:50.576Z,30.40
2023-04-25T08:16:18.945Z,30.70
2023-04-25T08:18:47.483Z,30.80
2023-04-25T08:21:15.157Z,30.70
2023-04-25T08:23:42.822Z,29.90
2023-04-25T08:26:13.805Z,30.10
2023-04-25T08:28:43.412Z,29.80
2023-04-25T08:31:10.647Z,29.80
2023-04-25T08:33:48.868Z,29.80
2023-04-25T08:36:39.642Z,28.70
2023-04-25T08:39:27.486Z,28.00
2023-04-25T08:42:16.824Z,27.10
2023-04-25T08:44:46.363Z,26.30
2023-04-25T08:47:14.277Z,25.20
2023-04-25T08:49:48.224Z,24.30
2023-04-25T08:52:23.419Z,23.50
2023-04-25T08:54:52.489Z,22.90
2023-04-25T08:57:21.986Z,22.40
2023-04-25T08:59:50.565Z,22.20
2023-04-25T09:02:21.094Z,22.10
2023-04-25T09:04:51.542Z,22.20
2023-04-25T09:07:22.411Z,22.50
2023-04-25T09:09:51.033Z,22.70
2023-04-25T09:12:21.698Z,23.10
2023-04-25T09:15:09.882Z,22.90
2023-04-25T09:17:57.976Z,22.90
2023-04-25T09:20:28.754Z,22.30
2023-04-25T09:23:06.385Z,22.40
2023-04-25T09:25:40.748Z,22.00
2023-04-25T09:28:10.974Z,21.00
2023-04-25T09:30:38.507Z,20.90
2023-04-25T09:33:12.317Z,21.20
2023-04-25T09:35:45.090Z,21.70
2023-04-25T09:38:20.874Z,21.80
2023-04-25T09:40:58.062Z,22.10
2023-04-25T09:43:36.218Z,22.00
2023-04-25T09:46:04.249Z,22.00
2023-04-25T09:48:32.021Z,22.00
2023-04-25T09:51:09.345Z,22.00
2023-04-25T09:53:38.881Z,21.60
2023-04-25T09:56:30.160Z,21.70
2023-04-25T09:58:57.954Z,21.90
2023-04-25T10:01:26.971Z,22.10
2023-04-25T10:04:10.459Z,22.60
2023-04-25T10:06:58.856Z,23.00
2023-04-25T10:09:30.405Z,23.00
2023-04-25T10:11:58.280Z,22.90
2023-04-25T10:14:26.718Z,23.00
2023-04-25T10:16:55.292Z,22.40
2023-04-25T10:19:23.644Z,22.20
2023-04-25T10:21:59.597Z,22.00
2023-04-25T10:24:27.933Z,21.40
2023-04-25T10:26:55.996Z,21.20
2023-04-25T10:29:26.252Z,21.00
2023-04-25T10:31:53.640Z,20.70
2023-04-25T10:34:26.836Z,20.60
2023-04-25T10:36:54.615Z,20.70
2023-04-25T10:39:25.133Z,20.50
2023-04-25T10:42:00.830Z,20.30
2023-04-25T10:44:29.883Z,20.10
2023-04-25T10:46:59.195Z,19.90
2023-04-25T10:49:32.253Z,20.10
2023-04-25T10:52:28.263Z,20.20
2023-04-25T10:54:56.600Z,20.00
2023-04-25T10:57:46.017Z,19.90
2023-04-25T11:00:14.786Z,19.60
2023-04-25T11:02:44.513Z,19.60
2023-04-25T11:05:19.677Z,19.60
2023-04-25T11:08:03.880Z,19.90
2023-04-25T11:10:36.761Z,20.10
2023-04-25T11:13:04.625Z,20.20
2023-04-25T11:15:31.796Z,20.40
2023-04-25T11:17:59.104Z,20.30
2023-04-25T11:20:29.310Z,20.10
2023-04-25T11:23:00.247Z,20.30
2023-04-25T11:25:28.060Z,20.60
2023-04-25T11:27:58.421Z,20.80
2023-04-25T11:30:27.378Z,20.60
2023-04-25T11:32:55.092Z,20.50
2023-04-25T11:35:24.477Z,20.60
2023-04-25T11:37:52.366Z,20.90
2023-04-25T11:40:19.638Z,21.20
2023-04-25T11:42:48.738Z,21.40
2023-04-25T11:45:16.586Z,21.60
2023-04-25T11:47:44.023Z,21.80
2023-04-25T11:50:11.470Z,22.00
2023-04-25T11:52:58.046Z,22.00
2023-04-25T11:55:25.707Z,22.10
2023-04-25T11:57:53.100Z,21.90
2023-04-25T12:00:22.826Z,21.70
2023-04-25T12:03:00.443Z,21.80
2023-04-25T12:05:33.390Z,21.80
2023-04-25T12:08:17.594Z,21.80
2023-04-25T12:10:47.333Z,21.80
2023-04-25T12:13:23.383Z,21.50
2023-04-25T12:15:51.126Z,21.40
2023-04-25T12:18:24.577Z,21.50
2023-04-25T12:20:53.484Z,21.60
2023-04-25T12:23:28.454Z,21.80
2023-04-25T12:25:56.737Z,21.50
2023-04-25T12:28:25.875Z,21.30
2023-04-25T12:31:01.941Z,21.20
2023-04-25T12:33:31.735Z,21.10
2023-04-25T12:36:00.423Z,21.00
2023-04-25T12:38:31.472Z,20.90
2023-04-25T12:40:59.635Z,20.90
2023-04-25T12:43:27.102Z,20.90
2023-04-25T12:45:56.512Z,20.80
2023-04-25T12:48:24.590Z,20.80
2023-04-25T12:50:53.067Z,21.00
2023-04-25T12:53:23.594Z,21.20
2023-04-25T12:55:51.781Z,21.20
2023-04-25T12:58:21.085Z,21.20
2023-04-25T13:00:48.959Z,21.20
2023-04-25T13:03:16.431Z,21.40
2023-04-25T13:05:43.969Z,21.50
2023-04-25T13:08:11.239Z,21.50
2023-04-25T13:10:40.466Z,21.60
2023-04-25T13:13:07.735Z,21.50
2023-04-25T13:15:35.026Z,21.40
2023-04-25T13:18:02.489Z,21.40
2023-04-25T13:20:29.832Z,21.20
2023-04-25T13:22:57.042Z,21.10
2023-04-25T13:25:24.552Z,20.80
2023-04-25T13:27:51.960Z,20.60
2023-04-25T13:30:19.273Z,20.40
2023-04-25T13:32:46.740Z,20.20
2023-04-25T13:35:15.114Z,20.10
2023-04-25T13:37:42.408Z,20.00
2023-04-25T13:40:12.399Z,20.00
2023-04-25T13:42:40.848Z,20.20
2023-04-25T13:45:09.037Z,20.10
2023-04-25T13:47:36.574Z,20.10
2023-04-25T13:50:05.139Z,19.80
2023-04-25T13:52:32.808Z,19.50
2023-04-25T13:55:00.603Z,19.60
2023-04-25T13:57:27.877Z,19.60
2023-04-25T13:59:55.508Z,19.70
2023-04-25T14:02:22.942Z,19.60
2023-04-25T14:04:50.314Z,19.70
2023-04-25T14:07:17.712Z,19.60
2023-04-25T14:09:46.006Z,19.50
2023-04-25T14:12:13.288Z,19.40
2023-04-25T14:14:40.879Z,19.40
2023-04-25T14:17:08.132Z,19.50
2023-04-25T14:19:35.656Z,19.30
2023-04-25T14:22:02.836Z,19.30
2023-04-25T14:24:30.181Z,19.20
2023-04-25T14:26:57.576Z,19.20
2023-04-25T14:29:24.922Z,19.30
2023-04-25T14:31:52.320Z,19.20
2023-04-25T14:34:19.992Z,19.10
2023-04-25T14:36:47.295Z,19.00
2023-04-25T14:39:15.939Z,18.90
2023-04-25T14:41:43.213Z,18.80
2023-04-25T14:44:10.605Z,18.80
2023-04-25T14:46:38.363Z,18.80
2023-04-25T14:49:06.565Z,18.90
2023-04-25T14:51:34.181Z,18.80
2023-04-25T14:54:01.646Z,18.80
2023-04-25T14:56:28.750Z,18.90
2023-04-25T14:58:56.255Z,18.90
2023-04-25T15:01:23.771Z,18.80
2023-04-25T15:03:52.707Z,18.80
2023-04-25T15:06:20.193Z,18.80
2023-04-25T15:08:47.698Z,18.60
2023-04-25T15:11:15.216Z,18.60
2023-04-25T15:13:42.710Z,18.60
2023-04-25T15:16:10.254Z,18.50
2023-04-25T15:18:37.625Z,18.40
2023-04-25T15:21:05.522Z,18.40
2023-04-25T15:23:32.969Z,18.40
2023-04-25T15:26:00.213Z,18.30
2023-04-25T15:28:27.562Z,18.20
2023-04-25T15:30:55.107Z,18.20
2023-04-25T15:33:22.361Z,18.10
2023-04-25T15:35:49.573Z,18.00
2023-04-25T15:38:16.918Z,17.90
2023-04-25T15:40:44.225Z,17.90
2023-04-25T15:43:16.455Z,17.90
2023-04-25T15:45:43.913Z,17.70
2023-04-25T15:48:12.010Z,17.70
2023-04-25T15:50:39.244Z,17.60
2023-04-25T15:53:07.244Z,17.50
2023-04-25T15:55:35.261Z,17.50
2023-04-25T15:58:02.586Z,17.50
2023-04-25T16:00:29.974Z,17.40
2023-04-25T16:02:57.983Z,17.30
2023-04-25T16:05:25.423Z,17.30
2023-04-25T16:07:54.018Z,17.20
2023-04-25T16:10:21.954Z,17.10
2023-04-25T16:12:51.119Z,17.00
2023-04-25T16:15:18.861Z,16.80
2023-04-25T16:17:46.252Z,16.80
2023-04-25T16:20:13.739Z,16.60
2023-04-25T16:22:42.205Z,16.40
2023-04-25T16:25:10.690Z,16.10
2023-04-25T16:27:39.791Z,15.80
2023-04-25T16:30:09.452Z,15.60
2023-04-25T16:32:38.358Z,15.40
2023-04-25T16:35:06.301Z,15.30
2023-04-25T16:37:33.732Z,15.20
2023-04-25T16:40:01.192Z,15.10
2023-04-25T16:42:28.456Z,15.00
2023-04-25T16:44:55.600Z,14.90
2023-04-25T16:47:22.823Z,14.70
2023-04-25T16:49:51.135Z,14.50
2023-04-25T16:52:20.029Z,14.50
2023-04-25T16:54:47.509Z,14.40
2023-04-25T16:57:14.900Z,14.30
2023-04-25T16:59:42.188Z,14.20
2023-04-25T17:02:13.225Z,14.10
2023-04-25T17:04:41.523Z,14.00
2023-04-25T17:07:09.216Z,14.00
2023-04-25T17:09:36.865Z,13.90
2023-04-25T17:12:04.858Z,13.90
2023-04-25T17:14:33.382Z,13.80
2023-04-25T17:17:01.032Z,13.70
2023-04-25T17:19:28.827Z,13.70
2023-04-25T17:21:56.559Z,13.60
2023-04-25T17:24:23.786Z,13.60
2023-04-25T17:26:50.966Z,13.60
2023-04-25T17:29:19.256Z,13.60
2023-04-25T17:31:46.946Z,13.50
2023-04-25T17:34:18.160Z,13.50
2023-04-25T17:36:46.242Z,13.40
2023-04-25T17:39:17.713Z,13.40
2023-04-25T17:41:45.309Z,13.30
2023-04-25T17:44:12.509Z,13.30
2023-04-25T17:46:39.654Z,13.20
2023-04-25T17:49:06.977Z,13.10
2023-04-25T17:51:34.300Z,13.10
2023-04-25T17:54:01.512Z,13.00
2023-04-25T17:56:29.288Z,13.00
2023-04-25T17:58:56.713Z,12.90
2023-04-25T18:01:24.094Z,12.80
2023-04-25T18:03:52.443Z,12.70
2023-04-25T18:06:19.679Z,12.60
2023-04-25T18:08:47.449Z,12.50
2023-04-25T18:11:15.046Z,12.50
2023-04-25T18:13:43.001Z,12.50
2023-04-25T18:16:10.197Z,12.40
2023-04-25T18:18:38.138Z,12.30
2023-04-25T18:21:08.775Z,12.20
2023-04-25T18:23:36.748Z,12.20
2023-04-25T18:26:04.714Z,12.20
2023-04-25T18:28:34.228Z,12.10
2023-04-25T18:31:01.392Z,12.10
2023-04-25T18:33:28.628Z,12.20
2023-04-25T18:35:59.110Z,12.10
2023-04-25T18:41:08.391Z,12.10
2023-04-25T18:43:44.998Z,12.00
2023-04-25T18:46:12.538Z,12.10
2023-04-25T18:48:39.889Z,12.10
2023-04-25T18:51:07.064Z,12.00
2023-04-25T18:53:34.686Z,12.00
2023-04-25T18:56:01.810Z,12.00
2023-04-25T18:58:29.515Z,11.90
2023-04-25T19:00:56.847Z,11.80
2023-04-25T19:03:24.589Z,11.60
2023-04-25T19:05:51.974Z,11.40
2023-04-25T19:08:19.221Z,11.30
2023-04-25T19:10:47.369Z,11.30
2023-04-25T19:13:14.932Z,11.20
2023-04-25T19:15:42.468Z,11.20
2023-04-25T19:18:09.856Z,11.20
2023-04-25T19:20:36.995Z,11.10
2023-04-25T19:23:05.514Z,11.10
2023-04-25T19:25:33.002Z,11.00
2023-04-25T19:28:00.720Z,11.00
2023-04-25T19:30:29.484Z,11.00
2023-04-25T19:32:57.873Z,10.90
2023-04-25T19:35:30.825Z,10.90
2023-04-25T19:37:58.652Z,10.90
2023-04-25T19:40:26.506Z,11.00
2023-04-25T19:42:53.864Z,11.00
2023-04-25T19:45:21.750Z,11.00
2023-04-25T19:47:49.220Z,11.00
2023-04-25T19:50:16.536Z,10.90
2023-04-25T19:52:44.241Z,10.90
2023-04-25T19:55:11.542Z,10.90
2023-04-25T19:57:39.253Z,10.90
2023-04-25T20:00:10.932Z,10.90
2023-04-25T20:02:40.881Z,11.00
2023-04-25T20:05:09.829Z,10.90
2023-04-25T20:07:37.042Z,11.00
2023-04-25T20:10:06.985Z,11.00
2023-04-25T20:12:37.899Z,11.00
2023-04-25T20:15:05.970Z,11.00
2023-04-25T20:17:33.823Z,11.00
2023-04-25T20:20:01.130Z,10.90
2023-04-25T20:22:31.852Z,10.90
2023-04-25T20:24:59.142Z,10.90
2023-04-25T20:27:26.260Z,10.90
2023-04-25T20:29:53.679Z,10.90
2023-04-25T20:32:21.226Z,10.90
2023-04-25T20:34:48.480Z,11.00
2023-04-25T20:37:16.643Z,11.00
2023-04-25T20:39:44.284Z,11.10
2023-04-25T20:42:11.433Z,11.00
2023-04-25T20:44:40.848Z,11.10
2023-04-25T20:47:09.551Z,11.00
2023-04-25T20:49:37.197Z,11.00
2023-04-25T20:52:06.108Z,11.00
2023-04-25T20:54:33.440Z,11.00
2023-04-25T20:57:01.300Z,11.00
2023-04-25T20:59:28.816Z,11.00
2023-04-25T21:01:56.488Z,11.00
2023-04-25T21:04:23.882Z,11.00
2023-04-25T21:06:51.389Z,10.90
2023-04-25T21:09:18.881Z,10.90
2023-04-25T21:11:46.333Z,10.90
2023-04-25T21:14:14.255Z,10.90
2023-04-25T21:16:42.773Z,10.90
2023-04-25T21:19:10.136Z,10.80
2023-04-25T21:21:37.342Z,10.80
2023-04-25T21:24:04.637Z,10.80
2023-04-25T21:26:31.741Z,10.80
2023-04-25T21:28:58.922Z,10.80
2023-04-25T21:31:26.504Z,10.70
2023-04-25T21:33:53.817Z,10.70
2023-04-25T21:36:22.301Z,10.70
2023-04-25T21:38:50.097Z,10.60
2023-04-25T21:41:20.500Z,10.60
2023-04-25T21:43:47.621Z,10.50
2023-04-25T21:46:23.459Z,10.40
2023-04-25T21:48:51.748Z,10.30
2023-04-25T21:51:19.840Z,10.30
2023-04-25T21:53:47.011Z,10.20
2023-04-25T21:56:14.276Z,10.10
2023-04-25T21:58:41.623Z,10.00
2023-04-25T22:01:10.012Z,10.00
2023-04-25T22:03:37.352Z,9.90
2023-04-25T22:06:04.737Z,9.90
2023-04-25T22:08:32.027Z,9.80
2023-04-25T22:11:00.536Z,9.80
2023-04-25T22:13:29.397Z,9.70
2023-04-25T22:15:56.525Z,9.70
2023-04-25T22:18:23.757Z,9.60
2023-04-25T22:20:50.942Z,9.60
2023-04-25T22:23:18.071Z,9.50
2023-04-25T22:25:45.339Z,9.50
2023-04-25T22:28:13.105Z,9.50
2023-04-25T22:30:40.198Z,9.40
2023-04-25T22:33:07.357Z,9.30
2023-04-25T22:35:34.531Z,9.30
2023-04-25T22:38:01.731Z,9.20
2023-04-25T22:40:29.021Z,9.20
2023-04-25T22:42:56.445Z,9.10
2023-04-25T22:45:23.588Z,9.10
2023-04-25T22:47:50.800Z,9.10
2023-04-25T22:50:18.157Z,9.00
2023-04-25T22:52:47.978Z,8.90
2023-04-25T22:55:15.293Z,8.90
2023-04-25T22:57:42.562Z,8.90
2023-04-25T23:00:20.375Z,8.80
2023-04-25T23:02:48.739Z,8.70
2023-04-25T23:05:16.431Z,8.70
2023-04-25T23:07:45.483Z,8.70
2023-04-25T23:10:14.359Z,8.70
2023-04-25T23:12:41.738Z,8.60
2023-04-25T23:15:10.154Z,8.60
2023-04-25T23:17:37.505Z,8.50
2023-04-25T23:20:07.764Z,8.60
2023-04-25T23:22:35.114Z,8.50
2023-04-25T23:25:02.674Z,8.50
2023-04-25T23:27:29.878Z,8.50
2023-04-25T23:29:58.372Z,8.40
2023-04-25T23:32:26.416Z,8.40
2023-04-25T23:34:53.648Z,8.40
2023-04-25T23:37:20.818Z,8.40
2023-04-25T23:39:52.521Z,8.40
2023-04-25T23:42:19.766Z,8.40
2023-04-25T23:44:46.910Z,8.30
2023-04-25T23:47:17.528Z,8.20
2023-04-25T23:49:45.930Z,8.20
2023-04-25T23:52:13.215Z,8.10
2023-04-25T23:54:40.407Z,8.10
2023-04-25T23:57:07.699Z,8.00
2023-04-25T23:59:34.861Z,8.00
